Terminal Aerodrome Forecast
Issued by NWS

Home | Current Version | Previous Version | Text Only | Print | Product List | Glossary On
Versions: 1 2 3 4 5 6 7 8 9 10 11 12 13 14 15 16 17 18 19 20 21 22 23 24 25 26 27 28 29 30 31 32 33 34 35 36 37 38
000
FTAK31 PANC 161140
TAFADQ
TAF
PADQ 161140Z 1612/1712 29020G30KT P6SM VCSH BKN060 OVC080
     FM161700 27015G25KT P6SM FEW060 SCT120
     FM170400 26008G15KT P6SM FEW080 SCT250
     FM170800 26008KT P6SM SKC=

USA.gov is the U.S. government's official web portal to all federal, state and local government web resources and services.